Terminal Aerodrome Forecast
Issued by NWS

Home | Current Version | Previous Version | Text Only | Print | Product List | Glossary On
Versions: 1 2 3 4 5 6 7 8 9 10 11 12 13 14 15 16
000
FTUS44 KBMX 250133 AAA
TAFTOI
TAF AMD
KTOI 250133Z 2502/2524 09005KT 5SM SHRA VCTS BKN060CB
     FM250300 10006KT P6SM BKN060
     FM250900 12008KT P6SM OVC015
     FM251800 14006KT 5SM SHRA VCTS SCT020 BKN040CB=

USA.gov is the U.S. government's official web portal to all federal, state and local government web resources and services.